createdAt,value
2023-04-23T00:00:13.597Z,7.71
2023-04-23T00:04:32.716Z,7.72
2023-04-23T00:08:33.578Z,7.74
2023-04-23T00:12:31.545Z,7.73
2023-04-23T00:16:29.565Z,7.71
2023-04-23T00:20:27.553Z,7.67
2023-04-23T00:24:25.525Z,7.59
2023-04-23T00:28:23.582Z,7.49
2023-04-23T00:32:21.653Z,7.38
2023-04-23T00:36:19.661Z,7.28
2023-04-23T00:40:17.749Z,7.18
2023-04-23T00:44:15.483Z,7.10
2023-04-23T00:48:13.454Z,7.02
2023-04-23T00:52:11.565Z,6.93
2023-04-23T00:56:09.447Z,6.84
2023-04-23T01:00:08.474Z,6.79
2023-04-23T01:04:07.756Z,6.74
2023-04-23T01:08:05.520Z,6.70
2023-04-23T01:12:04.433Z,6.65
2023-04-23T01:16:02.500Z,6.60
2023-04-23T01:20:01.496Z,6.58
2023-04-23T01:23:59.497Z,6.54
2023-04-23T01:27:58.478Z,6.48
2023-04-23T01:31:56.558Z,6.45
2023-04-23T01:35:56.401Z,6.37
2023-04-23T01:39:54.469Z,6.32
2023-04-23T01:43:52.445Z,6.30
2023-04-23T01:47:50.605Z,6.25
2023-04-23T01:51:48.404Z,6.17
2023-04-23T01:55:46.438Z,6.08
2023-04-23T01:59:44.378Z,5.99
2023-04-23T02:03:43.634Z,5.90
2023-04-23T02:07:41.353Z,5.83
2023-04-23T02:11:39.470Z,5.79
2023-04-23T02:15:37.346Z,5.76
2023-04-23T02:19:38.449Z,5.71
2023-04-23T02:23:36.422Z,5.62
2023-04-23T02:27:34.356Z,5.54
2023-04-23T02:31:32.367Z,5.49
2023-04-23T02:35:30.372Z,5.46
2023-04-23T02:39:28.447Z,5.44
2023-04-23T02:43:26.366Z,5.43
2023-04-23T02:47:24.428Z,5.46
2023-04-23T02:51:24.338Z,5.48
2023-04-23T02:55:23.337Z,5.50
2023-04-23T02:59:22.435Z,5.52
2023-04-23T03:03:23.458Z,5.57
2023-04-23T03:07:25.353Z,5.62
2023-04-23T03:11:23.296Z,5.66
2023-04-23T03:15:21.429Z,5.68
2023-04-23T03:19:19.274Z,5.67
2023-04-23T03:23:17.299Z,5.67
2023-04-23T03:27:15.262Z,5.68
2023-04-23T03:31:13.343Z,5.72
2023-04-23T03:35:11.251Z,5.81
2023-04-23T03:39:10.411Z,5.91
2023-04-23T03:43:18.246Z,6.08
2023-04-23T03:47:38.298Z,6.63
2023-04-23T03:51:36.237Z,7.23
2023-04-23T03:55:34.293Z,7.95
2023-04-23T03:59:32.259Z,8.70
2023-04-23T04:03:32.471Z,9.48
2023-04-23T04:07:23.456Z,10.28
2023-04-23T04:11:21.280Z,11.04
2023-04-23T04:15:21.208Z,11.69
2023-04-23T04:19:19.288Z,12.49
2023-04-23T04:23:17.377Z,13.29
2023-04-23T04:27:15.245Z,13.99
2023-04-23T04:31:13.212Z,14.63
2023-04-23T04:35:12.325Z,15.18
2023-04-23T04:39:10.155Z,15.68
2023-04-23T04:43:08.247Z,16.19
2023-04-23T04:47:06.205Z,16.51
2023-04-23T04:51:04.242Z,16.67
2023-04-23T04:55:02.222Z,16.75
2023-04-23T04:59:00.213Z,16.61
2023-04-23T05:02:58.343Z,16.35
2023-04-23T05:06:56.183Z,16.05
2023-04-23T05:10:54.275Z,15.86
2023-04-23T05:14:53.008Z,15.69
2023-04-23T05:18:55.211Z,15.57
2023-04-23T05:22:57.119Z,15.55
2023-04-23T05:26:55.170Z,15.44
2023-04-23T05:30:53.250Z,15.34
2023-04-23T05:34:51.130Z,15.28
2023-04-23T05:38:49.192Z,15.17
2023-04-23T05:42:47.370Z,15.25
2023-04-23T05:46:45.180Z,15.28
2023-04-23T05:50:43.101Z,15.26
2023-04-23T05:54:41.323Z,15.29
2023-04-23T05:58:39.187Z,15.31
2023-04-23T06:02:37.256Z,15.47
2023-04-23T06:06:35.084Z,15.62
2023-04-23T06:10:33.096Z,15.77
2023-04-23T06:14:31.040Z,15.83
2023-04-23T06:18:29.121Z,15.87
2023-04-23T06:22:27.160Z,15.90
2023-04-23T06:26:25.137Z,16.06
2023-04-23T06:30:23.142Z,16.20
2023-04-23T06:34:21.097Z,16.24
2023-04-23T06:38:19.082Z,16.34
2023-04-23T06:42:17.026Z,16.44
2023-04-23T06:46:28.067Z,16.50
2023-04-23T06:50:26.285Z,16.54
2023-04-23T06:54:24.028Z,16.60
2023-04-23T06:58:22.178Z,16.66
2023-04-23T07:02:20.027Z,16.65
2023-04-23T07:06:18.036Z,16.68
2023-04-23T07:10:18.005Z,16.71
2023-04-23T07:14:17.085Z,16.83
2023-04-23T07:18:15.057Z,16.93
2023-04-23T07:22:15.236Z,17.01
2023-04-23T07:26:13.066Z,17.06
2023-04-23T07:30:11.036Z,17.07
2023-04-23T07:34:10.002Z,17.17
2023-04-23T07:38:08.125Z,17.33
2023-04-23T07:42:06.123Z,17.40
2023-04-23T07:46:04.101Z,17.54
2023-04-23T07:50:02.078Z,17.70
2023-04-23T07:54:01.028Z,17.79
2023-04-23T07:57:59.355Z,17.88
2023-04-23T08:01:57.034Z,18.03
2023-04-23T08:05:55.981Z,18.08
2023-04-23T08:09:53.979Z,18.10
2023-04-23T08:13:51.947Z,18.20
2023-04-23T08:17:50.007Z,18.30
2023-04-23T08:21:41.104Z,18.40
2023-04-23T08:25:39.015Z,18.52
2023-04-23T08:29:37.047Z,18.62
2023-04-23T08:33:37.067Z,18.72
2023-04-23T08:37:35.000Z,18.82
2023-04-23T08:41:38.044Z,18.87
2023-04-23T08:45:38.153Z,18.95
2023-04-23T08:49:35.944Z,19.00
2023-04-23T08:53:36.152Z,19.02
2023-04-23T08:57:34.921Z,19.08
2023-04-23T09:01:33.897Z,19.23
2023-04-23T09:05:32.008Z,19.30
2023-04-23T09:09:30.898Z,19.31
2023-04-23T09:13:29.916Z,19.43
2023-04-23T09:17:28.072Z,19.48
2023-04-23T09:21:25.932Z,19.45
2023-04-23T09:25:24.960Z,19.46
2023-04-23T09:29:29.972Z,19.54
2023-04-23T09:33:27.894Z,19.56
2023-04-23T09:37:25.884Z,19.49
2023-04-23T09:41:40.849Z,19.49
2023-04-23T09:45:39.932Z,19.55
2023-04-23T09:49:37.883Z,19.61
2023-04-23T09:53:35.966Z,19.69
2023-04-23T09:57:33.855Z,19.70
2023-04-23T10:01:32.003Z,19.67
2023-04-23T10:05:49.830Z,19.68
2023-04-23T10:09:55.850Z,19.65
2023-04-23T10:13:53.842Z,19.75
2023-04-23T10:17:53.953Z,19.86
2023-04-23T10:21:57.854Z,19.96
2023-04-23T10:26:00.881Z,20.03
2023-04-23T10:30:00.912Z,20.14
2023-04-23T10:33:59.698Z,20.22
2023-04-23T10:37:59.805Z,20.27
2023-04-23T10:41:57.999Z,20.38
2023-04-23T10:45:55.800Z,20.57
2023-04-23T10:49:53.889Z,20.83
2023-04-23T10:53:51.768Z,20.87
2023-04-23T10:58:19.798Z,20.99
2023-04-23T11:02:38.820Z,21.21
2023-04-23T11:07:24.888Z,21.45
2023-04-23T11:11:23.786Z,21.74
2023-04-23T11:15:26.787Z,21.90
2023-04-23T11:19:25.785Z,22.08
2023-04-23T11:23:43.791Z,22.20
2023-04-23T11:27:43.731Z,22.30
2023-04-23T11:31:54.376Z,22.36
2023-04-23T11:35:58.725Z,22.45
2023-04-23T11:40:03.857Z,22.47
2023-04-23T11:44:01.802Z,22.62
2023-04-23T11:48:04.010Z,22.76
2023-04-23T11:52:02.796Z,22.83
2023-04-23T11:56:03.758Z,22.84
2023-04-23T12:00:01.790Z,22.88
2023-04-23T12:04:04.202Z,23.05
2023-04-23T12:08:06.744Z,23.19
2023-04-23T12:12:05.736Z,23.48
2023-04-23T12:16:05.787Z,23.64
2023-04-23T12:20:03.740Z,23.70
2023-04-23T12:24:05.691Z,23.83
2023-04-23T12:28:03.726Z,23.84
2023-04-23T12:32:02.725Z,23.95
2023-04-23T12:36:04.775Z,23.94
2023-04-23T12:40:02.674Z,24.16
2023-04-23T12:44:00.770Z,24.37
2023-04-23T12:47:58.823Z,24.61
2023-04-23T12:51:56.673Z,24.39
2023-04-23T12:55:54.794Z,24.41
2023-04-23T12:59:52.689Z,24.51
2023-04-23T13:03:50.738Z,24.54
2023-04-23T13:07:48.705Z,24.79
2023-04-23T13:11:39.846Z,25.00
2023-04-23T13:15:37.671Z,24.93
2023-04-23T13:19:35.642Z,25.25
2023-04-23T13:23:33.695Z,25.71
2023-04-23T13:27:31.669Z,26.03
2023-04-23T13:31:29.804Z,26.30
2023-04-23T13:35:27.659Z,26.44
2023-04-23T13:39:26.727Z,26.28
2023-04-23T13:43:24.627Z,26.40
2023-04-23T13:47:22.926Z,26.59
2023-04-23T13:51:34.802Z,26.49
2023-04-23T13:55:33.674Z,26.69
2023-04-23T13:59:31.771Z,26.71
2023-04-23T14:03:29.639Z,27.05
2023-04-23T14:07:27.652Z,27.32
2023-04-23T14:11:25.708Z,27.00
2023-04-23T14:15:24.649Z,26.56
2023-04-23T14:19:24.790Z,26.01
2023-04-23T14:24:00.616Z,26.16
2023-04-23T14:28:04.656Z,26.41
2023-04-23T14:32:02.647Z,26.39
2023-04-23T14:36:00.614Z,26.30
2023-04-23T14:39:58.557Z,26.58
2023-04-23T14:43:56.604Z,26.77
2023-04-23T14:47:50.526Z,26.76
2023-04-23T14:51:48.654Z,26.86
2023-04-23T14:55:46.627Z,27.00
2023-04-23T14:59:45.707Z,27.08
2023-04-23T15:03:43.698Z,26.91
2023-04-23T15:07:41.590Z,26.99
2023-04-23T15:11:39.555Z,27.21
2023-04-23T15:15:44.529Z,27.25
2023-04-23T15:19:42.961Z,27.34
2023-04-23T15:23:40.639Z,27.53
2023-04-23T15:27:38.571Z,27.67
2023-04-23T15:31:36.631Z,27.67
2023-04-23T15:35:42.558Z,27.60
2023-04-23T15:39:40.800Z,27.32
2023-04-23T15:43:38.543Z,27.04
2023-04-23T15:47:37.583Z,27.10
2023-04-23T15:51:28.677Z,27.25
2023-04-23T15:55:26.548Z,27.39
2023-04-23T15:59:24.525Z,27.52
2023-04-23T16:03:22.762Z,27.29
2023-04-23T16:07:20.502Z,26.74
2023-04-23T16:11:19.657Z,26.00
2023-04-23T16:15:18.561Z,25.38
2023-04-23T16:19:17.089Z,24.84
2023-04-23T16:23:14.596Z,24.27
2023-04-23T16:27:13.565Z,23.83
2023-04-23T16:31:11.513Z,23.35
2023-04-23T16:35:29.529Z,22.90
2023-04-23T16:39:27.637Z,22.61
2023-04-23T16:43:25.482Z,22.37
2023-04-23T16:47:23.484Z,22.13
2023-04-23T16:51:21.483Z,21.91
2023-04-23T16:55:21.504Z,21.66
2023-04-23T16:59:19.665Z,21.38
2023-04-23T17:03:17.697Z,21.10
2023-04-23T17:07:16.485Z,20.91
2023-04-23T17:11:14.560Z,20.70
2023-04-23T17:15:12.480Z,20.49
2023-04-23T17:19:10.449Z,20.26
2023-04-23T17:23:08.460Z,20.01
2023-04-23T17:27:06.406Z,19.80
2023-04-23T17:31:04.521Z,19.58
2023-04-23T17:35:09.505Z,19.36
2023-04-23T17:39:09.461Z,19.15
2023-04-23T17:43:07.503Z,18.95
2023-04-23T17:47:05.556Z,18.75
2023-04-23T17:51:03.542Z,18.54
2023-04-23T17:55:01.707Z,18.29
2023-04-23T17:58:59.378Z,18.06
2023-04-23T18:02:57.593Z,17.85
2023-04-23T18:06:55.385Z,17.64
2023-04-23T18:10:53.527Z,17.46
2023-04-23T18:14:51.510Z,17.31
2023-04-23T18:18:49.399Z,17.13
2023-04-23T18:22:49.382Z,16.87
2023-04-23T18:26:47.728Z,16.62
2023-04-23T18:30:45.372Z,16.44
2023-04-23T18:34:45.414Z,16.23
2023-04-23T18:38:53.425Z,15.97
2023-04-23T18:42:51.400Z,15.78
2023-04-23T18:46:50.423Z,15.60
2023-04-23T18:50:59.347Z,15.42
2023-04-23T18:54:57.360Z,15.28
2023-04-23T18:58:55.399Z,15.23
2023-04-23T19:02:53.511Z,15.24
2023-04-23T19:06:51.440Z,15.24
2023-04-23T19:10:49.338Z,15.26
2023-04-23T19:14:47.290Z,15.27
2023-04-23T19:18:45.385Z,15.28
2023-04-23T19:22:43.473Z,15.25
2023-04-23T19:26:41.341Z,15.18
2023-04-23T19:30:39.341Z,15.13
2023-04-23T19:34:39.346Z,15.07
2023-04-23T19:38:37.374Z,14.99
2023-04-23T19:42:36.318Z,14.89
2023-04-23T19:46:36.620Z,14.76
2023-04-23T19:50:34.274Z,14.62
2023-04-23T19:54:32.324Z,14.53
2023-04-23T19:58:30.368Z,14.44
2023-04-23T20:02:28.366Z,14.33
2023-04-23T20:06:26.351Z,14.24
2023-04-23T20:10:24.298Z,14.16
2023-04-23T20:14:22.247Z,14.08
2023-04-23T20:18:20.391Z,13.99
2023-04-23T20:22:18.317Z,13.90
2023-04-23T20:26:16.351Z,13.82
2023-04-23T20:30:16.299Z,13.76
2023-04-23T20:34:14.269Z,13.69
2023-04-23T20:38:12.221Z,13.59
2023-04-23T20:42:10.311Z,13.51
2023-04-23T20:46:10.509Z,13.42
2023-04-23T20:50:08.246Z,13.34
2023-04-23T20:54:06.297Z,13.26
2023-04-23T20:58:04.381Z,13.17
2023-04-23T21:02:03.194Z,13.08
2023-04-23T21:06:01.263Z,13.01
2023-04-23T21:09:59.243Z,12.92
2023-04-23T21:13:58.453Z,12.84
2023-04-23T21:17:57.228Z,12.77
2023-04-23T21:21:55.323Z,12.71
2023-04-23T21:25:54.172Z,12.66
2023-04-23T21:29:52.302Z,12.59
2023-04-23T21:33:50.277Z,12.52
2023-04-23T21:37:48.256Z,12.47
2023-04-23T21:41:46.195Z,12.40
2023-04-23T21:45:44.194Z,12.32
2023-04-23T21:49:42.275Z,12.26
2023-04-23T21:53:40.147Z,12.21
2023-04-23T21:57:38.124Z,12.17
2023-04-23T22:01:36.964Z,12.12
2023-04-23T22:05:36.170Z,12.06
2023-04-23T22:09:34.158Z,12.03
2023-04-23T22:13:32.136Z,11.98
2023-04-23T22:17:32.266Z,11.94
2023-04-23T22:21:30.224Z,11.92
2023-04-23T22:25:29.229Z,11.91
2023-04-23T22:29:28.140Z,11.89
2023-04-23T22:33:26.210Z,11.87
2023-04-23T22:37:24.098Z,11.85
2023-04-23T22:41:22.167Z,11.83
2023-04-23T22:45:20.054Z,11.80
2023-04-23T22:49:21.098Z,11.80
2023-04-23T22:53:19.080Z,11.79
2023-04-23T22:57:17.114Z,11.79
2023-04-23T23:01:15.108Z,11.78
2023-04-23T23:05:13.244Z,11.76
2023-04-23T23:09:11.092Z,11.72
2023-04-23T23:13:09.185Z,11.65
2023-04-23T23:17:07.010Z,11.59
2023-04-23T23:21:05.107Z,11.52
2023-04-23T23:25:03.058Z,11.46
2023-04-23T23:29:01.034Z,11.37
2023-04-23T23:32:59.157Z,11.28
2023-04-23T23:36:58.092Z,11.21
2023-04-23T23:40:57.048Z,11.14
2023-04-23T23:44:56.039Z,11.07
2023-04-23T23:48:54.055Z,11.03
2023-04-23T23:52:52.138Z,10.97
2023-04-23T23:56:50.015Z,10.90
